Latest Weather Observations for Ferny Creek

IDV60801

Issued at 3:05 pm EST Friday 25 April 2014 (issued every 30 minutes, with the page automatically refreshed every 10 minutes)

About weather observations | Map of weather stations | Latest weather observations for VIC | Other Formats
Station Details ID: 086266 Name: FERNY CREEK Lat: -37.87 Lon: 145.35 Height: 512.9 m
Data from the previous 72 hours. | See also: Recent months at Ferny Creek
Date/Time
EST
Temp
°C
App
Temp
°C
Dew
Point
Rel
Hum
%
Delta-T
°C
Wind Press
QNH
hPa
Press
MSL
hPa
Rain
since 9 am
mm
Dir
 
Spd
km/h
Gust
km/h
Spd
kts
Gust
kts
25/03:00pm 16.4 14.3 6.0 50 5.2 N 6 13 3 7 1014.5 1014.0 0.0
25/02:30pm 16.2 14.2 6.3 52 5.0 NNE 6 11 3 6 1014.6 - 0.0
25/02:00pm 15.4 13.1 5.9 53 4.7 N 7 19 4 10 1015.2 1014.6 0.0
25/01:30pm 14.6 12.4 6.2 57 4.2 N 7 15 4 8 1015.7 - 0.0
25/01:00pm 14.1 12.1 6.2 59 3.9 N 6 9 3 5 1016.3 1015.8 0.0
25/12:30pm 13.5 10.8 5.7 59 3.8 N 9 19 5 10 1017.0 - 0.0
25/12:00pm 13.6 11.4 5.3 57 4.0 N 6 17 3 9 1017.6 1017.1 0.0
25/11:30am 13.3 11.0 5.5 59 3.8 NNW 7 13 4 7 1018.0 - 0.0
25/11:00am 13.6 11.4 5.5 58 3.9 NNW 6 11 3 6 1018.1 1017.6 0.0
25/10:30am 12.1 10.0 4.1 58 3.7 NW 4 7 2 4 1018.5 - 0.0
25/10:00am 11.6 8.9 2.6 54 4.0 N 6 9 3 5 1019.1 1018.6 0.0
25/09:30am 11.8 9.6 3.1 55 3.9 NW 4 9 2 5 1019.4 - 0.0
25/09:00am 11.0 8.8 3.1 58 3.5 N 4 7 2 4 1019.6 1019.1 0.2
25/08:30am 9.9 7.3 3.0 62 3.1 ENE 6 7 3 4 1019.7 - 0.2
25/08:00am 8.8 6.9 2.6 65 2.7 NE 2 4 1 2 1019.9 1019.4 0.2
25/07:30am 7.5 5.6 2.6 71 2.1 E 2 4 1 2 1019.9 - 0.2
25/07:00am 6.1 3.3 1.8 74 1.8 E 6 9 3 5 1019.9 1019.4 0.2
25/06:30am 5.7 2.9 2.0 77 1.5 E 6 9 3 5 1020.1 - 0.2
25/06:00am 5.9 2.9 2.0 76 1.6 E 7 13 4 7 1019.9 1019.4 0.2
25/05:30am 6.5 3.7 2.0 73 1.9 E 6 11 3 6 1020.0 - 0.2
25/05:00am 6.1 3.3 1.8 74 1.8 E 6 11 3 6 1019.8 1019.3 0.2
25/04:30am 6.7 3.8 2.6 75 1.8 E 7 13 4 7 1019.9 - 0.2
25/04:00am 6.2 3.3 1.7 73 1.9 ESE 6 9 3 5 1019.9 1019.4 0.2
25/03:30am 6.3 3.5 2.0 74 1.8 ESE 6 7 3 4 1020.1 - 0.2
25/03:00am 6.0 3.2 2.1 76 1.6 ESE 6 9 3 5 1020.2 1019.7 0.2
25/02:30am 5.9 3.0 2.4 78 1.5 E 7 9 4 5 1020.0 - 0.2
25/02:00am 6.3 3.9 2.4 76 1.6 ESE 4 11 2 6 1020.5 1020.1 0.2
25/01:30am 6.1 3.8 2.6 78 1.5 E 4 6 2 3 1020.7 - 0.2
25/01:00am 6.3 4.0 2.8 78 1.5 E 4 7 2 4 1021.0 1020.5 0.2
25/12:30am 6.8 5.0 3.2 78 1.6 ENE 2 6 1 3 1021.2 - 0.2
25/12:00am 6.4 4.1 3.0 79 1.5 E 4 4 2 2 1021.3 1020.8 0.2
 
Date/Time
EST
Temp
°C
App
Temp
°C
Dew
Point
Rel
Hum
%
Delta-T
°C
Wind Press
QNH
hPa
Press
MSL
hPa
Rain
since 9 am
mm
Dir
 
Spd
km/h
Gust
km/h
Spd
kts
Gust
kts
24/11:30pm 6.0 3.7 2.8 80 1.4 E 4 4 2 2 1021.3 - 0.2
24/11:00pm 6.1 3.8 2.9 80 1.4 E 4 6 2 3 1021.3 1020.8 0.2
24/10:30pm 6.4 4.2 3.2 80 1.4 ESE 4 6 2 3 1021.4 - 0.2
24/10:00pm 6.7 4.9 3.5 80 1.4 ESE 2 6 1 3 1021.5 1021.0 0.2
24/09:30pm 6.8 4.6 3.6 80 1.4 SE 4 7 2 4 1021.4 - 0.2
24/09:00pm 7.0 4.9 3.8 80 1.4 ESE 4 7 2 4 1021.1 1020.6 0.2
24/08:30pm 7.4 5.4 4.2 80 1.4 ESE 4 7 2 4 1020.8 - 0.2
24/08:00pm 7.9 6.2 4.1 77 1.7 SE 2 6 1 3 1020.6 1020.2 0.2
24/07:30pm 7.7 6.0 4.1 78 1.6 ESE 2 4 1 2 1020.4 - 0.2
24/07:00pm 8.0 6.5 4.8 80 1.5 ESE 2 6 1 3 1020.1 1019.6 0.2
24/06:30pm 7.8 6.2 4.4 79 1.5 SE 2 6 1 3 1019.9 - 0.2
24/06:00pm 7.8 6.4 3.8 76 1.8 SSW 0 0 0 0 1019.4 1018.9 0.2
24/05:30pm 8.5 6.8 3.8 72 2.1 SW 2 4 1 2 1019.0 - 0.2
24/05:00pm 9.3 7.2 3.9 69 2.4 WSW 4 11 2 6 1018.5 1018.0 0.2
24/04:30pm 10.1 7.9 3.6 64 2.9 SW 4 11 2 6 1018.4 - 0.2
24/04:00pm 10.9 8.4 3.9 62 3.2 SSW 6 13 3 7 1018.2 1017.7 0.2
24/03:30pm 11.1 8.3 3.4 59 3.5 SW 7 17 4 9 1017.9 - 0.2
24/03:00pm 12.1 9.3 3.3 55 4.0 WSW 7 15 4 8 1017.5 1017.0 0.2
24/02:30pm 12.2 9.0 3.2 54 4.1 WSW 9 19 5 10 1017.4 - 0.2
24/02:00pm 11.9 9.1 2.9 54 4.1 SW 7 17 4 9 1017.3 1016.8 0.2
24/01:30pm 12.6 10.2 5.1 60 3.6 WSW 7 17 4 9 1017.2 - 0.2
24/01:00pm 11.3 8.1 3.1 57 3.7 W 9 26 5 14 1017.1 1016.6 0.2
24/12:30pm 11.3 8.0 4.5 63 3.2 WSW 11 26 6 14 1017.2 - 0.2
24/12:00pm 11.4 8.8 5.9 69 2.6 W 9 26 5 14 1017.2 1016.7 0.2
24/11:30am 10.3 7.4 6.6 78 1.8 WSW 11 28 6 15 1017.0 - 0.2
24/11:00am 10.3 8.6 7.5 83 1.4 W 6 19 3 10 1016.6 1016.1 0.2
24/10:30am 10.6 9.4 9.7 94 0.5 WSW 6 15 3 8 1016.1 - 0.2
24/10:00am 10.4 9.3 9.8 96 0.3 W 6 19 3 10 1015.7 1015.2 0.2
24/09:30am 9.8 8.5 9.3 97 0.3 W 6 11 3 6 1015.3 - 0.2
24/09:00am 9.3 8.2 8.5 95 0.4 WNW 4 9 2 5 1014.6 1014.1 1.2
24/08:30am 9.4 7.6 7.3 87 1.0 W 6 15 3 8 1014.0 - 0.4
24/08:00am 10.2 8.8 5.4 72 2.3 W 2 4 1 2 1013.3 1012.7 0.0
24/07:30am 10.3 8.3 4.2 66 2.8 W 4 7 2 4 1012.8 - 0.0
24/07:00am 10.5 7.9 3.1 60 3.3 WNW 6 11 3 6 1012.4 1011.9 0.0
24/06:30am 10.9 8.0 2.7 57 3.6 WNW 7 15 4 8 1012.1 - 0.0
24/06:00am 10.9 8.3 3.0 58 3.5 W 6 17 3 9 1011.8 1011.2 0.0
24/05:30am 11.0 8.0 2.3 55 3.8 NNW 7 19 4 10 1011.2 - 0.0
24/05:00am 10.8 7.8 2.1 55 3.8 NNW 7 17 4 9 1011.2 1010.6 0.0
24/04:30am 10.4 7.5 2.5 58 3.5 NW 7 15 4 8 1011.1 - 0.0
24/04:00am 10.8 7.9 2.6 57 3.6 NW 7 17 4 9 1011.0 1010.4 0.0
24/03:30am 11.2 8.5 2.5 55 3.9 NNW 6 17 3 9 1011.0 - 0.0
24/03:00am 11.3 8.4 2.6 55 3.9 NW 7 15 4 8 1011.3 1010.7 0.0
24/02:30am 11.1 8.4 2.9 57 3.7 NW 6 15 3 8 1011.6 - 0.0
24/02:00am 11.2 8.4 3.3 58 3.6 NW 7 17 4 9 1011.9 1011.3 0.0
24/01:30am 11.7 8.9 3.2 56 3.9 NW 7 19 4 10 1012.1 - 0.0
24/01:00am 11.5 8.9 3.3 57 3.7 NW 6 15 3 8 1012.2 1011.7 0.0
24/12:30am 11.3 8.5 3.1 57 3.7 NNW 7 15 4 8 1012.3 - 0.0
24/12:00am 11.2 9.0 3.3 58 3.6 NNW 4 11 2 6 1012.8 1012.2 0.0
 
Date/Time
EST
Temp
°C
App
Temp
°C
Dew
Point
Rel
Hum
%
Delta-T
°C
Wind Press
QNH
hPa
Press
MSL
hPa
Rain
since 9 am
mm
Dir
 
Spd
km/h
Gust
km/h
Spd
kts
Gust
kts
23/11:30pm 11.4 9.1 2.9 56 3.8 N 4 7 2 4 1012.9 - 0.0
23/11:00pm 12.1 9.4 2.8 53 4.2 NW 6 15 3 8 1013.3 1012.7 0.0
23/10:30pm 11.9 9.7 3.2 55 3.9 N 4 9 2 5 1013.5 - 0.0
23/10:00pm 11.7 9.2 3.5 57 3.7 NW 6 13 3 7 1013.7 1013.2 0.0
23/09:30pm 11.8 9.3 3.6 57 3.8 NNW 6 13 3 7 1013.7 - 0.0
23/09:00pm 11.8 9.8 4.5 61 3.4 N 4 11 2 6 1014.0 1013.5 0.0
23/08:30pm 12.2 10.3 4.9 61 3.4 NNW 4 9 2 5 1013.9 - 0.0
23/08:00pm 12.1 10.6 6.6 69 2.7 N 4 9 2 5 1013.8 1013.3 0.0
23/07:30pm 12.1 11.2 7.6 74 2.3 NNW 2 6 1 3 1013.8 - 0.0
23/07:00pm 11.5 10.6 7.8 78 1.9 N 2 6 1 3 1013.9 1013.4 0.0
23/06:30pm 11.2 10.2 7.3 77 1.9 NNW 2 4 1 2 1013.9 - 0.0
23/06:00pm 10.7 10.2 7.8 82 1.4 CALM 0 0 0 0 1014.0 1013.5 0.0
23/05:30pm 11.2 10.6 7.3 77 1.9 CALM 0 0 0 0 1014.0 - 0.0
23/05:00pm 11.9 11.5 8.2 78 1.9 CALM 0 0 0 0 1013.9 1013.4 0.0
23/04:30pm 13.4 13.1 8.5 72 2.5 CALM 0 0 0 0 1013.9 - 0.0
23/04:00pm 14.0 13.0 7.5 65 3.3 NW 2 4 1 2 1014.1 1013.6 0.0
23/03:30pm 14.1 13.2 7.9 66 3.2 WNW 2 6 1 3 1014.1 - 0.0
23/03:00pm 13.9 12.6 7.7 66 3.1 NNW 4 9 2 5 1014.1 1013.6 0.0
23/02:30pm 13.9 12.5 7.4 65 3.3 NW 4 7 2 4 1014.4 - 0.0
23/02:00pm 14.0 12.6 7.1 63 3.5 WNW 4 11 2 6 1014.6 1014.1 0.0
23/01:30pm 13.6 12.4 8.2 70 2.8 WNW 4 6 2 3 1015.1 - 0.0
23/01:00pm 13.7 12.3 9.4 75 2.3 W 7 22 4 12 1015.4 1014.9 0.0
23/12:30pm 13.3 12.3 9.0 75 2.2 NNW 4 9 2 5 1015.5 - 0.0
23/12:00pm 13.5 12.3 9.4 76 2.1 NNW 6 9 3 5 1016.1 1015.6 0.0
23/11:30am 12.6 11.6 8.9 78 1.9 N 4 7 2 4 1016.3 - 0.0
23/11:00am 11.7 10.2 8.6 81 1.6 NW 6 9 3 5 1016.6 1016.1 0.0
23/10:30am 13.8 13.1 10.2 79 1.9 N 4 6 2 3 1016.9 - 0.0
23/10:00am 12.0 11.0 9.0 82 1.5 W 4 6 2 3 1016.9 1016.3 0.0
23/09:30am 12.2 11.1 8.5 78 1.9 WNW 4 11 2 6 1017.1 - 0.0
23/09:00am 12.5 12.1 8.4 76 2.1 CALM 0 0 0 0 1016.6 1016.1 9.2
23/08:30am 10.3 10.0 8.6 89 0.9 CALM 0 0 0 0 1016.6 - 9.2
23/08:00am 10.1 9.7 8.4 89 0.9 CALM 0 0 0 0 1016.5 1016.0 9.2
23/07:30am 9.5 9.1 8.3 92 0.6 CALM 0 2 0 1 1016.3 - 9.2
23/07:00am 8.9 7.9 7.5 91 0.7 E 2 4 1 2 1016.2 1015.7 9.2
23/06:30am 9.3 8.7 7.6 89 0.8 CALM 0 2 0 1 1016.4 - 9.2
23/06:00am 9.3 8.3 7.4 88 0.9 ESE 2 4 1 2 1016.3 1015.8 9.2
23/05:30am 9.7 8.5 8.0 89 0.8 E 4 6 2 3 1016.2 - 9.2
23/05:00am 9.4 8.1 7.8 90 0.8 E 4 6 2 3 1016.2 1015.7 9.2
23/04:30am 9.4 8.1 7.7 89 0.8 ESE 4 6 2 3 1016.0 - 9.2
23/04:00am 9.3 8.0 7.7 90 0.8 E 4 7 2 4 1016.2 1015.7 9.2
23/03:30am 9.0 7.7 7.5 90 0.7 ESE 4 7 2 4 1016.1 - 9.2
23/03:00am 9.3 8.4 7.9 91 0.7 ESE 2 6 1 3 1016.3 1015.8 9.2
23/02:30am 9.8 8.7 8.4 91 0.7 ESE 4 6 2 3 1016.6 - 9.2
23/02:00am 9.8 8.7 8.4 91 0.7 ESE 4 6 2 3 1016.9 1016.3 9.2
23/01:30am 9.8 8.8 8.9 94 0.5 ESE 4 6 2 3 1017.1 - 9.2
23/01:00am 9.7 8.6 8.6 93 0.6 ESE 4 6 2 3 1017.2 1016.7 9.2
23/12:30am 9.7 8.7 8.8 94 0.5 E 4 7 2 4 1017.4 - 9.2
23/12:00am 9.9 9.3 8.8 93 0.6 ESE 2 4 1 2 1017.5 1017.0 9.2
 
Date/Time
EST
Temp
°C
App
Temp
°C
Dew
Point
Rel
Hum
%
Delta-T
°C
Wind Press
QNH
hPa
Press
MSL
hPa
Rain
since 9 am
mm
Dir
 
Spd
km/h
Gust
km/h
Spd
kts
Gust
kts
22/11:30pm 10.0 9.1 9.1 94 0.5 ESE 4 7 2 4 1017.7 - 9.2
22/11:00pm 10.1 9.6 9.3 95 0.4 E 2 4 1 2 1018.0 1017.5 9.2
22/10:30pm 10.2 9.7 9.3 94 0.5 SE 2 6 1 3 1018.2 - 9.2
22/10:00pm 10.3 9.8 9.5 95 0.4 ESE 2 4 1 2 1018.1 1017.6 9.2
22/09:30pm 10.4 9.6 9.8 96 0.3 ESE 4 7 2 4 1018.0 - 9.2
22/09:00pm 10.4 10.0 9.8 96 0.3 E 2 4 1 2 1017.8 1017.3 9.2
22/08:30pm 10.4 9.6 9.8 96 0.3 SE 4 9 2 5 1017.7 - 9.2
22/08:00pm 10.6 9.5 9.8 95 0.4 SSE 6 11 3 6 1017.5 1017.0 9.0
22/07:30pm 11.8 12.2 11.2 96 0.3 CALM 0 6 0 3 1017.3 - 8.6
22/07:00pm 11.8 11.4 11.2 96 0.3 SSW 4 6 2 3 1017.1 1016.6 8.0
22/06:30pm 11.7 12.1 11.1 96 0.3 CALM 0 0 0 0 1016.6 - 8.0
22/06:00pm 11.6 11.2 11.0 96 0.3 NW 4 9 2 5 1016.4 1015.9 7.8
22/05:30pm 11.7 11.6 10.9 95 0.4 WNW 2 7 1 4 1016.0 - 7.8
22/05:00pm 11.7 11.6 10.9 95 0.4 NW 2 4 1 2 1015.9 1015.4 7.2
22/04:30pm 11.9 12.2 11.0 94 0.5 CALM 0 2 0 1 1015.6 - 6.6
22/04:00pm 12.0 12.3 10.9 93 0.6 CALM 0 4 0 2 1015.6 1015.1 6.2
22/03:30pm 12.2 12.6 11.1 93 0.6 CALM 0 0 0 0 1015.5 - 6.2

Other Formats:

Comma delimited format used in spreadsheet applications
http://www.bom.gov.au/fwo/IDV60801/IDV60801.94872.axf

JavaScript Object Notation format (JSON) in row-major order
http://www.bom.gov.au/fwo/IDV60801/IDV60801.94872.json